Madison, Missouri
Current Conditions -  °F | °C
As of 11:15 PM on Saturday 25 Oct 2014 (Local Time) from KHAE Reporting Station
Clear Clear  
Wind Chill: 61°   Ceiling: Unl
Heat Index: 61°   Visibility: 10mi
Dew Point: 37°   Wind: 5mph
Humidity: 42%   Direction: 20°NNE
Pressure: 30.05"   Gusts: NA
Location:  39.47°N, 92.21°W
Report Text: KHAE 260415Z AUTO 02004KT 10SM CLR 16/03 A3005 RMK AO2
Loading
Personal Weather Stations






























Interactive Weather Map
Tropical Storm Tracking
New forecast layout! Learn more

10-Day Weather Forecast

Advertisements
Track Severe Weather on mobile